sensor_id;sensor_type;location;lat;lon;timestamp;pressure;altitude;pressure_sealevel;temperature;humidity
7168;BME280;3625;51.762;14.320;2022-11-09T00:01:03;100311.72;;;11.23;100.00
7168;BME280;3625;51.762;14.320;2022-11-09T00:03:32;100303.84;;;11.20;100.00
7168;BME280;3625;51.762;14.320;2022-11-09T00:06:00;100310.06;;;11.18;100.00
7168;BME280;3625;51.762;14.320;2022-11-09T00:08:29;100310.13;;;11.16;100.00
7168;BME280;3625;51.762;14.320;2022-11-09T00:11:02;100302.25;;;11.15;100.00
7168;BME280;3625;51.762;14.320;2022-11-09T00:13:34;100300.47;;;11.15;100.00
7168;BME280;3625;51.762;14.320;2022-11-09T00:16:05;100303.91;;;11.17;100.00
7168;BME280;3625;51.762;14.320;2022-11-09T00:18:34;100303.09;;;11.15;100.00
7168;BME280;3625;51.762;14.320;2022-11-09T00:21:05;100300.53;;;11.12;100.00
7168;BME280;3625;51.762;14.320;2022-11-09T00:23:34;100306.72;;;11.11;100.00
7168;BME280;3625;51.762;14.320;2022-11-09T00:26:04;100299.69;;;11.10;100.00
7168;BME280;3625;51.762;14.320;2022-11-09T00:28:33;100306.53;;;11.19;100.00
7168;BME280;3625;51.762;14.320;2022-11-09T00:31:06;100310.03;;;11.19;100.00
7168;BME280;3625;51.762;14.320;2022-11-09T00:33:35;100310.91;;;11.20;100.00
7168;BME280;3625;51.762;14.320;2022-11-09T00:36:05;100314.47;;;11.19;100.00
7168;BME280;3625;51.762;14.320;2022-11-09T00:38:35;100308.34;;;11.17;100.00
7168;BME280;3625;51.762;14.320;2022-11-09T00:41:05;100309.22;;;11.17;100.00
7168;BME280;3625;51.762;14.320;2022-11-09T00:43:34;100303.09;;;11.15;100.00
7168;BME280;3625;51.762;14.320;2022-11-09T00:46:05;100311.13;;;11.12;100.00
7168;BME280;3625;51.762;14.320;2022-11-09T00:48:34;100310.28;;;11.10;100.00
7168;BME280;3625;51.762;14.320;2022-11-09T00:51:03;100306.88;;;11.07;100.00
7168;BME280;3625;51.762;14.320;2022-11-09T00:53:32;100315.00;;;10.99;100.00
7168;BME280;3625;51.762;14.320;2022-11-09T00:56:02;100311.66;;;10.91;100.00
7168;BME280;3625;51.762;14.320;2022-11-09T00:58:35;100318.94;;;10.83;100.00
7168;BME280;3625;51.762;14.320;2022-11-09T01:01:08;100315.56;;;10.78;100.00
7168;BME280;3625;51.762;14.320;2022-11-09T01:03:41;100319.28;;;10.71;100.00
7168;BME280;3625;51.762;14.320;2022-11-09T01:06:14;100312.28;;;10.68;100.00
7168;BME280;3625;51.762;14.320;2022-11-09T01:08:43;100309.69;;;10.65;100.00
7168;BME280;3625;51.762;14.320;2022-11-09T01:11:14;100305.31;;;10.64;100.00
7168;BME280;3625;51.762;14.320;2022-11-09T01:13:44;100307.16;;;10.61;100.00
7168;BME280;3625;51.762;14.320;2022-11-09T01:16:16;100313.44;;;10.56;100.00
7168;BME280;3625;51.762;14.320;2022-11-09T01:18:46;100305.66;;;10.50;100.00
7168;BME280;3625;51.762;14.320;2022-11-09T01:21:15;100303.16;;;10.44;100.00
7168;BME280;3625;51.762;14.320;2022-11-09T01:23:44;100308.56;;;10.40;100.00
7168;BME280;3625;51.762;14.320;2022-11-09T01:26:14;100305.94;;;10.38;100.00
7168;BME280;3625;51.762;14.320;2022-11-09T01:28:43;100302.47;;;10.36;100.00
7168;BME280;3625;51.762;14.320;2022-11-09T01:31:15;100313.97;;;10.35;100.00
7168;BME280;3625;51.762;14.320;2022-11-09T01:33:44;100318.41;;;10.33;100.00
7168;BME280;3625;51.762;14.320;2022-11-09T01:36:15;100310.41;;;10.36;100.00
7168;BME280;3625;51.762;14.320;2022-11-09T01:38:44;100317.44;;;10.37;100.00
7168;BME280;3625;51.762;14.320;2022-11-09T01:41:16;100279.03;;;10.21;100.00
7168;BME280;3625;51.762;14.320;2022-11-09T01:44:05;100297.94;;;10.41;100.00
7168;BME280;3625;51.762;14.320;2022-11-09T01:46:44;100305.88;;;10.41;100.00
7168;BME280;3625;51.762;14.320;2022-11-09T01:49:20;100306.91;;;10.36;100.00
7168;BME280;3625;51.762;14.320;2022-11-09T01:51:56;100304.34;;;10.31;100.00
7168;BME280;3625;51.762;14.320;2022-11-09T01:54:32;100309.72;;;10.28;100.00
7168;BME280;3625;51.762;14.320;2022-11-09T01:57:07;100308.91;;;10.25;100.00
7168;BME280;3625;51.762;14.320;2022-11-09T01:59:42;100298.47;;;10.20;100.00
7168;BME280;3625;51.762;14.320;2022-11-09T02:02:14;100294.13;;;10.14;100.00
7168;BME280;3625;51.762;14.320;2022-11-09T02:04:48;100290.72;;;10.11;100.00
7168;BME280;3625;51.762;14.320;2022-11-09T02:07:20;100297.81;;;10.09;100.00
7168;BME280;3625;51.762;14.320;2022-11-09T02:09:56;100306.63;;;10.08;100.00
7168;BME280;3625;51.762;14.320;2022-11-09T02:12:30;100298.75;;;10.05;100.00
7168;BME280;3625;51.762;14.320;2022-11-09T02:15:03;100293.56;;;10.02;100.00
7168;BME280;3625;51.762;14.320;2022-11-09T02:17:34;100291.00;;;9.97;100.00
7168;BME280;3625;51.762;14.320;2022-11-09T02:20:09;100292.88;;;9.94;100.00
7168;BME280;3625;51.762;14.320;2022-11-09T02:22:38;100290.34;;;9.88;100.00
7168;BME280;3625;51.762;14.320;2022-11-09T02:25:09;100280.66;;;9.87;100.00
7168;BME280;3625;51.762;14.320;2022-11-09T02:27:39;100284.16;;;9.89;100.00
7168;BME280;3625;51.762;14.320;2022-11-09T02:30:10;100280.63;;;9.90;100.00
7168;BME280;3625;51.762;14.320;2022-11-09T02:32:39;100282.34;;;9.91;100.00
7168;BME280;3625;51.762;14.320;2022-11-09T02:35:10;100277.06;;;9.91;100.00
7168;BME280;3625;51.762;14.320;2022-11-09T02:37:46;100281.50;;;9.89;100.00
7168;BME280;3625;51.762;14.320;2022-11-09T02:40:19;100276.25;;;9.87;100.00
7168;BME280;3625;51.762;14.320;2022-11-09T02:42:49;100275.47;;;9.83;100.00
7168;BME280;3625;51.762;14.320;2022-11-09T02:45:18;100275.53;;;9.80;100.00
7168;BME280;3625;51.762;14.320;2022-11-09T02:47:47;100275.38;;;9.87;100.00
7168;BME280;3625;51.762;14.320;2022-11-09T02:50:17;100273.53;;;9.92;100.00
7168;BME280;3625;51.762;14.320;2022-11-09T02:52:46;100273.59;;;9.89;100.00
7168;BME280;3625;51.762;14.320;2022-11-09T02:55:15;100280.72;;;9.85;100.00
7168;BME280;3625;51.762;14.320;2022-11-09T02:57:44;100277.13;;;9.88;100.00
7168;BME280;3625;51.762;14.320;2022-11-09T03:00:15;100277.00;;;9.94;100.00
7168;BME280;3625;51.762;14.320;2022-11-09T03:02:44;100272.47;;;9.99;100.00
7168;BME280;3625;51.762;14.320;2022-11-09T03:05:14;100277.63;;;10.05;100.00
7168;BME280;3625;51.762;14.320;2022-11-09T03:07:46;100286.22;;;10.14;100.00
7168;BME280;3625;51.762;14.320;2022-11-09T03:10:15;100282.50;;;10.23;100.00
7168;BME280;3625;51.762;14.320;2022-11-09T03:12:46;100280.91;;;10.14;100.00
7168;BME280;3625;51.762;14.320;2022-11-09T03:15:14;100279.44;;;10.03;100.00
7168;BME280;3625;51.762;14.320;2022-11-09T03:17:45;100275.28;;;9.93;100.00
7168;BME280;3625;51.762;14.320;2022-11-09T03:20:15;100275.47;;;9.83;100.00
7168;BME280;3625;51.762;14.320;2022-11-09T03:22:45;100277.38;;;9.77;100.00
7168;BME280;3625;51.762;14.320;2022-11-09T03:25:14;100279.06;;;9.79;100.00
7168;BME280;3625;51.762;14.320;2022-11-09T03:27:42;100272.84;;;9.83;100.00
7168;BME280;3625;51.762;14.320;2022-11-09T03:30:12;100270.84;;;9.93;100.00
7168;BME280;3625;51.762;14.320;2022-11-09T03:32:41;100272.28;;;10.08;100.00
7168;BME280;3625;51.762;14.320;2022-11-09T03:35:16;100289.50;;;10.26;100.00
7168;BME280;3625;51.762;14.320;2022-11-09T03:37:47;100278.56;;;10.41;100.00
7168;BME280;3625;51.762;14.320;2022-11-09T03:40:16;100272.09;;;10.52;100.00
7168;BME280;3625;51.762;14.320;2022-11-09T03:42:48;100258.97;;;10.48;100.00
7168;BME280;3625;51.762;14.320;2022-11-09T03:45:17;100277.91;;;10.67;100.00
7168;BME280;3625;51.762;14.320;2022-11-09T03:47:46;100286.69;;;10.69;100.00
7168;BME280;3625;51.762;14.320;2022-11-09T03:50:16;100292.00;;;10.67;100.00
7168;BME280;3625;51.762;14.320;2022-11-09T03:52:47;100299.91;;;10.69;100.00
7168;BME280;3625;51.762;14.320;2022-11-09T03:55:15;100294.56;;;10.72;100.00
7168;BME280;3625;51.762;14.320;2022-11-09T03:57:44;100285.69;;;10.73;100.00
7168;BME280;3625;51.762;14.320;2022-11-09T04:00:16;100292.78;;;10.72;100.00
7168;BME280;3625;51.762;14.320;2022-11-09T04:02:48;100287.50;;;10.72;100.00
7168;BME280;3625;51.762;14.320;2022-11-09T04:05:17;100282.22;;;10.71;100.00
7168;BME280;3625;51.762;14.320;2022-11-09T04:07:48;100280.72;;;10.61;100.00
7168;BME280;3625;51.762;14.320;2022-11-09T04:10:18;100282.78;;;10.48;100.00
7168;BME280;3625;51.762;14.320;2022-11-09T04:12:47;100279.59;;;10.35;100.00
7168;BME280;3625;51.762;14.320;2022-11-09T04:15:19;100280.69;;;10.27;100.00
7168;BME280;3625;51.762;14.320;2022-11-09T04:17:57;100272.84;;;10.22;100.00
7168;BME280;3625;51.762;14.320;2022-11-09T04:20:27;100267.66;;;10.16;100.00
7168;BME280;3625;51.762;14.320;2022-11-09T04:22:58;100263.34;;;10.12;100.00
7168;BME280;3625;51.762;14.320;2022-11-09T04:25:30;100261.72;;;10.06;100.00
7168;BME280;3625;51.762;14.320;2022-11-09T04:28:00;100266.16;;;10.06;100.00
7168;BME280;3625;51.762;14.320;2022-11-09T04:30:32;100266.97;;;10.08;100.00
7168;BME280;3625;51.762;14.320;2022-11-09T04:33:01;100266.97;;;10.09;100.00
7168;BME280;3625;51.762;14.320;2022-11-09T04:35:32;100257.97;;;10.16;100.00
7168;BME280;3625;51.762;14.320;2022-11-09T04:38:05;100256.84;;;10.28;100.00
7168;BME280;3625;51.762;14.320;2022-11-09T04:40:35;100254.00;;;10.37;100.00
7168;BME280;3625;51.762;14.320;2022-11-09T04:43:05;100263.47;;;10.46;100.00
7168;BME280;3625;51.762;14.320;2022-11-09T04:45:34;100263.16;;;10.56;100.00
7168;BME280;3625;51.762;14.320;2022-11-09T04:48:05;100274.31;;;10.69;100.00
7168;BME280;3625;51.762;14.320;2022-11-09T04:50:34;100270.59;;;10.76;100.00
7168;BME280;3625;51.762;14.320;2022-11-09T04:53:06;100269.50;;;10.85;100.00
7168;BME280;3625;51.762;14.320;2022-11-09T04:55:35;100273.81;;;10.89;100.00
7168;BME280;3625;51.762;14.320;2022-11-09T04:58:04;100273.59;;;10.96;100.00
7168;BME280;3625;51.762;14.320;2022-11-09T05:00:33;100276.03;;;11.04;100.00
7168;BME280;3625;51.762;14.320;2022-11-09T05:03:03;100272.34;;;11.10;100.00
7168;BME280;3625;51.762;14.320;2022-11-09T05:05:32;100275.69;;;11.16;100.00
7168;BME280;3625;51.762;14.320;2022-11-09T05:08:01;100278.19;;;11.22;100.00
7168;BME280;3625;51.762;14.320;2022-11-09T05:10:32;100291.28;;;11.27;100.00
7168;BME280;3625;51.762;14.320;2022-11-09T05:13:03;100286.78;;;11.30;100.00
7168;BME280;3625;51.762;14.320;2022-11-09T05:15:33;100282.25;;;11.34;100.00
7168;BME280;3625;51.762;14.320;2022-11-09T05:18:03;100287.47;;;11.37;100.00
7168;BME280;3625;51.762;14.320;2022-11-09T05:20:32;100277.75;;;11.38;100.00
7168;BME280;3625;51.762;14.320;2022-11-09T05:23:02;100282.03;;;11.42;100.00
7168;BME280;3625;51.762;14.320;2022-11-09T05:25:50;100290.81;;;11.44;100.00
7168;BME280;3625;51.762;14.320;2022-11-09T05:28:19;100279.28;;;11.46;100.00
7168;BME280;3625;51.762;14.320;2022-11-09T05:30:48;100274.81;;;11.48;100.00
7168;BME280;3625;51.762;14.320;2022-11-09T05:33:16;100286.16;;;11.52;100.00
7168;BME280;3625;51.762;14.320;2022-11-09T05:35:46;100294.13;;;11.52;100.00
7168;BME280;3625;51.762;14.320;2022-11-09T05:38:14;100298.53;;;11.51;100.00
7168;BME280;3625;51.762;14.320;2022-11-09T05:40:43;100296.03;;;11.47;100.00
7168;BME280;3625;51.762;14.320;2022-11-09T05:43:13;100293.38;;;11.47;100.00
7168;BME280;3625;51.762;14.320;2022-11-09T05:45:42;100285.44;;;11.47;100.00
7168;BME280;3625;51.762;14.320;2022-11-09T05:48:12;100284.56;;;11.46;100.00
7168;BME280;3625;51.762;14.320;2022-11-09T05:50:42;100290.78;;;11.45;100.00
7168;BME280;3625;51.762;14.320;2022-11-09T05:53:23;100295.16;;;11.46;100.00
7168;BME280;3625;51.762;14.320;2022-11-09T05:55:51;100283.66;;;11.47;100.00
7168;BME280;3625;51.762;14.320;2022-11-09T05:58:21;100285.38;;;11.50;100.00
7168;BME280;3625;51.762;14.320;2022-11-09T06:00:50;100288.00;;;11.50;100.00
7168;BME280;3625;51.762;14.320;2022-11-09T06:03:19;100302.97;;;11.51;100.00
7168;BME280;3625;51.762;14.320;2022-11-09T06:05:48;100302.97;;;11.51;100.00
7168;BME280;3625;51.762;14.320;2022-11-09T06:08:17;100302.06;;;11.52;100.00
7168;BME280;3625;51.762;14.320;2022-11-09T06:10:46;100313.56;;;11.51;100.00
7168;BME280;3625;51.762;14.320;2022-11-09T06:13:15;100303.84;;;11.51;100.00
7168;BME280;3625;51.762;14.320;2022-11-09T06:15:52;100313.53;;;11.52;100.00
7168;BME280;3625;51.762;14.320;2022-11-09T06:18:21;100314.41;;;11.53;100.00
7168;BME280;3625;51.762;14.320;2022-11-09T06:20:51;100310.75;;;11.57;100.00
7168;BME280;3625;51.762;14.320;2022-11-09T06:23:21;100306.25;;;11.59;100.00
7168;BME280;3625;51.762;14.320;2022-11-09T06:25:52;100312.34;;;11.62;100.00
7168;BME280;3625;51.762;14.320;2022-11-09T06:28:21;100322.91;;;11.64;100.00
7168;BME280;3625;51.762;14.320;2022-11-09T06:30:51;100314.91;;;11.67;100.00
7168;BME280;3625;51.762;14.320;2022-11-09T06:33:19;100320.09;;;11.70;100.00
7168;BME280;3625;51.762;14.320;2022-11-09T06:35:48;100316.44;;;11.74;100.00
7168;BME280;3625;51.762;14.320;2022-11-09T06:38:23;100313.78;;;11.74;100.00
7168;BME280;3625;51.762;14.320;2022-11-09T06:40:53;100313.78;;;11.74;100.00
7168;BME280;3625;51.762;14.320;2022-11-09T06:43:23;100310.19;;;11.77;100.00
7168;BME280;3625;51.762;14.320;2022-11-09T06:45:53;100315.31;;;11.84;100.00
7168;BME280;3625;51.762;14.320;2022-11-09T06:48:22;100320.38;;;11.92;100.00
7168;BME280;3625;51.762;14.320;2022-11-09T06:50:51;100322.13;;;11.93;100.00
7168;BME280;3625;51.762;14.320;2022-11-09T06:53:19;100319.38;;;11.94;100.00
7168;BME280;3625;51.762;14.320;2022-11-09T06:55:49;100335.28;;;11.94;100.00
7168;BME280;3625;51.762;14.320;2022-11-09T06:58:18;100329.13;;;11.94;100.00
7168;BME280;3625;51.762;14.320;2022-11-09T07:00:47;100336.13;;;11.96;100.00
7168;BME280;3625;51.762;14.320;2022-11-09T07:03:18;100340.53;;;11.97;100.00
7168;BME280;3625;51.762;14.320;2022-11-09T07:05:49;100341.44;;;11.96;100.00
7168;BME280;3625;51.762;14.320;2022-11-09T07:08:18;100348.44;;;11.99;100.00
7168;BME280;3625;51.762;14.320;2022-11-09T07:10:47;100345.56;;;12.06;100.00
7168;BME280;3625;51.762;14.320;2022-11-09T07:13:16;100343.56;;;12.13;100.00
7168;BME280;3625;51.762;14.320;2022-11-09T07:15:51;100343.41;;;12.19;100.00
7168;BME280;3625;51.762;14.320;2022-11-09T07:18:21;100352.03;;;12.26;100.00
7168;BME280;3625;51.762;14.320;2022-11-09T07:20:50;100291.97;;;11.95;100.00
7168;BME280;3625;51.762;14.320;2022-11-09T07:23:19;100356.22;;;12.33;100.00
7168;BME280;3625;51.762;14.320;2022-11-09T07:25:48;100350.69;;;12.40;100.00
7168;BME280;3625;51.762;14.320;2022-11-09T07:28:17;100348.59;;;12.50;100.00
7168;BME280;3625;51.762;14.320;2022-11-09T07:30:45;100343.06;;;12.58;100.00
7168;BME280;3625;51.762;14.320;2022-11-09T07:33:19;100350.06;;;12.60;100.00
7168;BME280;3625;51.762;14.320;2022-11-09T07:35:49;100348.31;;;12.59;100.00
7168;BME280;3625;51.762;14.320;2022-11-09T07:38:18;100348.28;;;12.61;100.00
7168;BME280;3625;51.762;14.320;2022-11-09T07:40:47;100343.66;;;12.66;100.00
7168;BME280;3625;51.762;14.320;2022-11-09T07:43:15;100344.34;;;12.72;100.00
7168;BME280;3625;51.762;14.320;2022-11-09T07:45:49;100346.69;;;12.81;100.00
7168;BME280;3625;51.762;14.320;2022-11-09T07:48:19;100347.38;;;12.88;100.00
7168;BME280;3625;51.762;14.320;2022-11-09T07:50:48;100349.84;;;12.93;100.00
7168;BME280;3625;51.762;14.320;2022-11-09T07:53:16;100360.66;;;12.88;100.00
7168;BME280;3625;51.762;14.320;2022-11-09T07:55:46;100363.34;;;12.87;100.00
7168;BME280;3625;51.762;14.320;2022-11-09T07:58:15;100360.56;;;12.90;100.00
7168;BME280;3625;51.762;14.320;2022-11-09T08:00:43;100363.00;;;12.97;100.00
7168;BME280;3625;51.762;14.320;2022-11-09T08:03:12;100361.09;;;13.01;100.00
7168;BME280;3625;51.762;14.320;2022-11-09T08:05:42;100360.19;;;13.02;100.00
7168;BME280;3625;51.762;14.320;2022-11-09T08:08:11;100360.81;;;13.08;100.00
7168;BME280;3625;51.762;14.320;2022-11-09T08:10:42;100356.19;;;13.15;100.00
7168;BME280;3625;51.762;14.320;2022-11-09T08:13:18;100357.53;;;13.28;100.00
7168;BME280;3625;51.762;14.320;2022-11-09T08:15:47;100359.50;;;13.48;100.00
7168;BME280;3625;51.762;14.320;2022-11-09T08:18:19;100367.81;;;13.62;100.00
7168;BME280;3625;51.762;14.320;2022-11-09T08:20:49;100372.97;;;13.67;100.00
7168;BME280;3625;51.762;14.320;2022-11-09T08:23:19;100369.63;;;13.62;100.00
7168;BME280;3625;51.762;14.320;2022-11-09T08:25:48;100370.88;;;13.51;100.00
7168;BME280;3625;51.762;14.320;2022-11-09T08:28:17;100369.53;;;13.40;100.00
7168;BME280;3625;51.762;14.320;2022-11-09T08:30:54;100389.41;;;13.28;100.00
7168;BME280;3625;51.762;14.320;2022-11-09T08:33:24;100384.38;;;13.20;100.00
7168;BME280;3625;51.762;14.320;2022-11-09T08:35:55;100382.75;;;13.15;100.00
7168;BME280;3625;51.762;14.320;2022-11-09T08:38:24;100378.13;;;13.21;100.00
7168;BME280;3625;51.762;14.320;2022-11-09T08:40:56;100392.84;;;13.32;100.00
7168;BME280;3625;51.762;14.320;2022-11-09T08:43:25;100380.34;;;13.34;100.00
7168;BME280;3625;51.762;14.320;2022-11-09T08:45:54;100406.00;;;13.59;98.88
7168;BME280;3625;51.762;14.320;2022-11-09T08:48:22;100405.91;;;13.63;97.95
7168;BME280;3625;51.762;14.320;2022-11-09T08:50:54;100402.22;;;13.67;99.08
7168;BME280;3625;51.762;14.320;2022-11-09T08:53:25;100402.38;;;13.62;96.04
7168;BME280;3625;51.762;14.320;2022-11-09T08:55:55;100409.66;;;13.57;98.00
7168;BME280;3625;51.762;14.320;2022-11-09T08:58:24;100403.56;;;13.53;98.38
7168;BME280;3625;51.762;14.320;2022-11-09T09:00:52;100408.13;;;13.50;100.00
7168;BME280;3625;51.762;14.320;2022-11-09T09:03:21;100410.25;;;13.40;99.63
7168;BME280;3625;51.762;14.320;2022-11-09T09:05:50;100408.72;;;13.33;99.77
7168;BME280;3625;51.762;14.320;2022-11-09T09:08:20;100413.28;;;13.30;99.33
7168;BME280;3625;51.762;14.320;2022-11-09T09:10:50;100429.09;;;13.33;99.53
7168;BME280;3625;51.762;14.320;2022-11-09T09:13:18;100431.69;;;13.34;99.54
7168;BME280;3625;51.762;14.320;2022-11-09T09:15:49;100438.63;;;13.40;99.67
7168;BME280;3625;51.762;14.320;2022-11-09T09:18:17;100436.84;;;13.40;100.00
7168;BME280;3625;51.762;14.320;2022-11-09T09:20:46;100438.34;;;13.47;100.00
7168;BME280;3625;51.762;14.320;2022-11-09T09:23:15;100440.53;;;13.61;100.00
7168;BME280;3625;51.762;14.320;2022-11-09T09:25:46;100438.50;;;13.68;100.00
7168;BME280;3625;51.762;14.320;2022-11-09T09:28:14;100440.16;;;13.72;100.00
7168;BME280;3625;51.762;14.320;2022-11-09T09:30:43;100440.84;;;13.77;100.00
7168;BME280;3625;51.762;14.320;2022-11-09T09:33:12;100428.31;;;13.80;100.00
7168;BME280;3625;51.762;14.320;2022-11-09T09:35:41;100433.69;;;13.79;100.00
7168;BME280;3625;51.762;14.320;2022-11-09T09:38:09;100434.50;;;13.81;100.00
7168;BME280;3625;51.762;14.320;2022-11-09T09:40:42;100432.06;;;13.75;100.00
7168;BME280;3625;51.762;14.320;2022-11-09T09:43:25;100437.84;;;13.61;100.00
7168;BME280;3625;51.762;14.320;2022-11-09T09:45:55;100428.38;;;13.54;100.00
7168;BME280;3625;51.762;14.320;2022-11-09T09:48:31;100427.72;;;13.47;100.00
7168;BME280;3625;51.762;14.320;2022-11-09T09:51:09;100422.50;;;13.44;100.00
7168;BME280;3625;51.762;14.320;2022-11-09T09:53:42;100419.84;;;13.44;100.00
7168;BME280;3625;51.762;14.320;2022-11-09T09:56:18;100420.03;;;13.40;100.00
7168;BME280;3625;51.762;14.320;2022-11-09T09:58:55;100411.28;;;13.36;100.00
7168;BME280;3625;51.762;14.320;2022-11-09T10:01:36;100416.75;;;13.32;100.00
7168;BME280;3625;51.762;14.320;2022-11-09T10:04:14;100415.09;;;13.28;100.00
7168;BME280;3625;51.762;14.320;2022-11-09T10:06:55;100427.53;;;13.27;100.00
7168;BME280;3625;51.762;14.320;2022-11-09T10:09:48;100424.97;;;13.24;100.00
7168;BME280;3625;51.762;14.320;2022-11-09T10:12:26;100426.00;;;13.20;100.00
7168;BME280;3625;51.762;14.320;2022-11-09T10:15:13;100434.25;;;13.11;100.00
7168;BME280;3625;51.762;14.320;2022-11-09T10:18:09;100430.09;;;13.02;100.00
7168;BME280;3625;51.762;14.320;2022-11-09T10:21:13;100433.75;;;12.98;100.00
7168;BME280;3625;51.762;14.320;2022-11-09T10:23:51;100441.13;;;12.89;100.00
7168;BME280;3625;51.762;14.320;2022-11-09T10:26:30;100374.31;;;12.48;100.00
7168;BME280;3625;51.762;14.320;2022-11-09T10:29:10;100428.94;;;12.83;100.00
7168;BME280;3625;51.762;14.320;2022-11-09T10:31:45;100427.69;;;12.95;100.00
7168;BME280;3625;51.762;14.320;2022-11-09T10:34:18;100416.81;;;13.02;100.00
7168;BME280;3625;51.762;14.320;2022-11-09T10:36:58;100425.44;;;13.09;100.00
7168;BME280;3625;51.762;14.320;2022-11-09T10:39:38;100423.81;;;13.05;100.00
7168;BME280;3625;51.762;14.320;2022-11-09T10:42:26;100429.13;;;13.05;100.00
7168;BME280;3625;51.762;14.320;2022-11-09T10:45:26;100416.66;;;13.07;100.00
7168;BME280;3625;51.762;14.320;2022-11-09T10:48:30;100422.38;;;13.23;100.00
7168;BME280;3625;51.762;14.320;2022-11-09T10:51:37;100422.41;;;13.47;100.00
7168;BME280;3625;51.762;14.320;2022-11-09T10:54:26;100428.69;;;13.70;100.00
7168;BME280;3625;51.762;14.320;2022-11-09T10:57:18;100404.44;;;13.79;100.00
7168;BME280;3625;51.762;14.320;2022-11-09T11:00:14;100400.25;;;13.96;100.00
7168;BME280;3625;51.762;14.320;2022-11-09T11:03:12;100406.97;;;14.07;100.00
7168;BME280;3625;51.762;14.320;2022-11-09T11:06:04;100405.28;;;14.04;100.00
7168;BME280;3625;51.762;14.320;2022-11-09T11:09:13;100396.56;;;14.01;100.00
7168;BME280;3625;51.762;14.320;2022-11-09T11:12:12;100400.19;;;13.98;100.00
7168;BME280;3625;51.762;14.320;2022-11-09T11:15:00;100396.41;;;14.04;100.00
7168;BME280;3625;51.762;14.320;2022-11-09T11:17:47;100396.94;;;14.13;100.00
7168;BME280;3625;51.762;14.320;2022-11-09T11:20:36;100390.34;;;14.23;100.00
7168;BME280;3625;51.762;14.320;2022-11-09T11:23:25;100381.59;;;14.20;100.00
7168;BME280;3625;51.762;14.320;2022-11-09T11:26:26;100390.66;;;14.16;100.00
7168;BME280;3625;51.762;14.320;2022-11-09T11:29:38;100380.16;;;14.11;100.00
7168;BME280;3625;51.762;14.320;2022-11-09T11:32:27;100377.28;;;14.17;100.00
7168;BME280;3625;51.762;14.320;2022-11-09T11:35:15;100379.53;;;14.28;100.00
7168;BME280;3625;51.762;14.320;2022-11-09T11:38:18;100366.59;;;14.42;100.00
7168;BME280;3625;51.762;14.320;2022-11-09T11:41:29;100370.50;;;14.55;100.00
7168;BME280;3625;51.762;14.320;2022-11-09T11:44:36;100374.47;;;14.67;100.00
7168;BME280;3625;51.762;14.320;2022-11-09T11:47:32;100365.50;;;14.69;100.00
7168;BME280;3625;51.762;14.320;2022-11-09T11:50:38;100367.16;;;14.72;100.00
7168;BME280;3625;51.762;14.320;2022-11-09T11:53:40;100366.59;;;14.64;100.00
7168;BME280;3625;51.762;14.320;2022-11-09T11:56:39;100358.50;;;14.67;100.00
7168;BME280;3625;51.762;14.320;2022-11-09T11:59:45;100362.13;;;14.64;100.00
7168;BME280;3625;51.762;14.320;2022-11-09T12:02:59;100358.41;;;14.47;100.00
7168;BME280;3625;51.762;14.320;2022-11-09T12:06:11;100360.63;;;14.12;100.00
7168;BME280;3625;51.762;14.320;2022-11-09T12:09:20;100350.66;;;13.71;100.00
7168;BME280;3625;51.762;14.320;2022-11-09T12:12:16;100343.69;;;13.43;100.00
7168;BME280;3625;51.762;14.320;2022-11-09T12:15:20;100339.81;;;13.29;100.00
7168;BME280;3625;51.762;14.320;2022-11-09T12:18:19;100339.16;;;13.22;100.00
7168;BME280;3625;51.762;14.320;2022-11-09T12:21:15;100279.91;;;12.94;100.00
7168;BME280;3625;51.762;14.320;2022-11-09T12:24:13;100332.38;;;13.38;100.00
7168;BME280;3625;51.762;14.320;2022-11-09T12:27:16;100338.06;;;13.52;100.00
7168;BME280;3625;51.762;14.320;2022-11-09T12:30:22;100334.28;;;13.58;100.00
7168;BME280;3625;51.762;14.320;2022-11-09T12:33:14;100336.78;;;13.63;100.00
7168;BME280;3625;51.762;14.320;2022-11-09T12:36:08;100326.94;;;13.66;100.00
7168;BME280;3625;51.762;14.320;2022-11-09T12:39:02;100325.97;;;13.67;100.00
7168;BME280;3625;51.762;14.320;2022-11-09T12:41:54;100327.66;;;13.70;100.00
7168;BME280;3625;51.762;14.320;2022-11-09T12:44:56;100338.94;;;13.76;100.00
7168;BME280;3625;51.762;14.320;2022-11-09T12:47:44;100339.66;;;13.81;100.00
7168;BME280;3625;51.762;14.320;2022-11-09T12:50:33;100342.94;;;13.88;100.00
7168;BME280;3625;51.762;14.320;2022-11-09T12:53:23;100334.56;;;13.98;100.00
7168;BME280;3625;51.762;14.320;2022-11-09T12:56:18;100335.00;;;14.10;100.00
7168;BME280;3625;51.762;14.320;2022-11-09T12:59:32;100348.81;;;14.19;100.00
7168;BME280;3625;51.762;14.320;2022-11-09T13:02:28;100346.72;;;14.27;100.00
7168;BME280;3625;51.762;14.320;2022-11-09T13:05:29;100352.41;;;14.42;100.00
7168;BME280;3625;51.762;14.320;2022-11-09T13:08:19;100296.25;;;14.26;100.00
7168;BME280;3625;51.762;14.320;2022-11-09T13:11:09;100351.22;;;14.70;100.00
7168;BME280;3625;51.762;14.320;2022-11-09T13:20:45;100345.66;;;14.55;100.00
7168;BME280;3625;51.762;14.320;2022-11-09T13:23:41;100342.59;;;14.44;100.00
7168;BME280;3625;51.762;14.320;2022-11-09T13:26:55;100344.72;;;14.34;100.00
7168;BME280;3625;51.762;14.320;2022-11-09T13:29:49;100342.41;;;14.25;100.00
7168;BME280;3625;51.762;14.320;2022-11-09T13:36:18;100342.72;;;14.17;100.00
7168;BME280;3625;51.762;14.320;2022-11-09T13:39:27;100348.28;;;14.10;100.00
7168;BME280;3625;51.762;14.320;2022-11-09T13:42:26;100344.19;;;14.01;100.00
7168;BME280;3625;51.762;14.320;2022-11-09T13:45:25;100344.38;;;13.96;100.00
7168;BME280;3625;51.762;14.320;2022-11-09T13:48:35;100354.97;;;13.98;100.00